Nearby METAR Reports

 

KMQS - Coatesville, Pennsylvania, USA
Distance from station: ENE 6mi, 10km
Updated: Sun, 09-Dec-2018 10:35pm EST
Clear
Clear
 Wind from N
Wind: N 6 mph , 9 km/h
Temperature: 27°F , -3°C
Wind Chill: 20°F , -7°C
Dew Point: 18°F , -8°C
Humidity: 69%
Barometer: 30.16 inHg , 1021.3 hPa
Clouds: Clear
Visibility: 10 miles , 16 km
2018/12/10 03:35 KMQS 100335Z AUTO 36005KT 10SM CLR M03/M08 A3016 RMK AO2
KLNS - Lancaster, Pennsylvania, USA
Distance from station: NW 21mi, 33km
Updated: Sun, 09-Dec-2018 9:53pm EST
Clear
Clear
 Wind from NNW
Wind: NNW 3 mph , 6 km/h
Temperature: 27°F , -3°C
Dew Point: 19°F , -7°C
Humidity: 74%
Barometer: 30.18 inHg , 1022 hPa
Clouds: Clear
Visibility: 10 miles , 16 km
2018/12/10 02:53 KLNS 100253Z 33003KT 10SM CLR M03/M07 A3018 RMK AO2 SLP224 T10281072 56021
 
KILG - Wilmington, Delaware, USA
Distance from station: SE 28mi, 45km
Updated: Sun, 09-Dec-2018 9:51pm EST
Clear
Clear
 Wind from N
Wind: N 5 mph , 7 km/h
Temperature: 30°F , -1°C
Wind Chill: 25°F , -4°C
Dew Point: 19°F , -7°C
Humidity: 64%
Barometer: 30.18 inHg , 1022 hPa
Clouds: Clear
Visibility: 10 miles , 16 km
2018/12/10 02:51 KILG 100251Z 36004KT 10SM CLR M01/M07 A3018 RMK AO2 SLP222 T10111067 56026
KRDG - Reading, Pennsylvania, USA
Distance from station: N 29mi, 47km
Updated: Sun, 09-Dec-2018 9:54pm EST
Clear
Clear
 Wind from calm
Wind: Calm
Temperature: 27°F , -3°C
Dew Point: 19°F , -7°C
Humidity: 74%
Barometer: 30.18 inHg , 1022 hPa
Clouds: Clear
Visibility: 10 miles , 16 km
2018/12/10 02:54 KRDG 100254Z AUTO 00000KT 10SM CLR M03/M07 A3018 RMK AO2 SLP229 T10281067 56020
 
KPTW - Pottstown, Pennsylvania, USA
Distance from station: NE 30mi, 48km
Updated: Sun, 09-Dec-2018 9:54pm EST
Clear
Clear
 Wind from calm
Wind: Calm
Temperature: 25°F , -4°C
Dew Point: 18°F , -8°C
Humidity: 74%
Barometer: 30.20 inHg , 1022.7 hPa
Clouds: Clear
Visibility: 8 miles , 13 km
2018/12/10 02:54 KPTW 100254Z AUTO 00000KT 8SM CLR M04/M08 A3020 RMK AO2 SLP227 T10391078 56021 $